sensor_id;sensor_type;location;lat;lon;timestamp;P1;durP1;ratioP1;P2;durP2;ratioP2
5774;SDS011;2913;51.120;6.772;2023-06-19T00:00:21;907.03;;;261.52;;
5774;SDS011;2913;51.120;6.772;2023-06-19T00:02:47;724.25;;;217.73;;
5774;SDS011;2913;51.120;6.772;2023-06-19T00:05:15;719.15;;;217.98;;
5774;SDS011;2913;51.120;6.772;2023-06-19T00:07:40;794.42;;;236.20;;
5774;SDS011;2913;51.120;6.772;2023-06-19T00:10:06;793.92;;;235.85;;
5774;SDS011;2913;51.120;6.772;2023-06-19T00:12:32;817.85;;;241.75;;
5774;SDS011;2913;51.120;6.772;2023-06-19T00:14:58;1362.72;;;367.83;;
5774;SDS011;2913;51.120;6.772;2023-06-19T00:17:24;688.55;;;209.93;;
5774;SDS011;2913;51.120;6.772;2023-06-19T00:19:55;711.05;;;217.10;;
5774;SDS011;2913;51.120;6.772;2023-06-19T00:22:20;853.92;;;251.48;;
5774;SDS011;2913;51.120;6.772;2023-06-19T00:24:46;898.28;;;262.08;;
5774;SDS011;2913;51.120;6.772;2023-06-19T00:27:12;1078.70;;;311.23;;
5774;SDS011;2913;51.120;6.772;2023-06-19T00:29:40;904.67;;;263.17;;
5774;SDS011;2913;51.120;6.772;2023-06-19T00:32:06;904.20;;;263.80;;
5774;SDS011;2913;51.120;6.772;2023-06-19T00:34:32;940.85;;;272.05;;
5774;SDS011;2913;51.120;6.772;2023-06-19T00:36:58;965.80;;;278.58;;
5774;SDS011;2913;51.120;6.772;2023-06-19T00:39:24;991.17;;;285.23;;
5774;SDS011;2913;51.120;6.772;2023-06-19T00:41:53;998.28;;;287.00;;
5774;SDS011;2913;51.120;6.772;2023-06-19T00:44:22;1043.63;;;297.88;;
5774;SDS011;2913;51.120;6.772;2023-06-19T00:46:55;1119.85;;;316.55;;
5774;SDS011;2913;51.120;6.772;2023-06-19T00:51:48;1234.65;;;344.40;;
5774;SDS011;2913;51.120;6.772;2023-06-19T00:54:16;1130.43;;;320.85;;
5774;SDS011;2913;51.120;6.772;2023-06-19T00:56:42;1193.85;;;336.17;;
5774;SDS011;2913;51.120;6.772;2023-06-19T00:59:15;1230.05;;;344.33;;
5774;SDS011;2913;51.120;6.772;2023-06-19T01:01:44;1265.05;;;352.65;;
5774;SDS011;2913;51.120;6.772;2023-06-19T01:04:13;1220.00;;;342.50;;
5774;SDS011;2913;51.120;6.772;2023-06-19T01:06:46;1165.50;;;330.73;;
5774;SDS011;2913;51.120;6.772;2023-06-19T01:09:22;1016.83;;;295.05;;
5774;SDS011;2913;51.120;6.772;2023-06-19T01:11:56;952.97;;;278.25;;
5774;SDS011;2913;51.120;6.772;2023-06-19T01:14:42;1062.63;;;304.08;;
5774;SDS011;2913;51.120;6.772;2023-06-19T01:17:20;1058.43;;;303.95;;
5774;SDS011;2913;51.120;6.772;2023-06-19T01:19:47;1174.47;;;333.90;;
5774;SDS011;2913;51.120;6.772;2023-06-19T01:22:22;1330.32;;;376.55;;
5774;SDS011;2913;51.120;6.772;2023-06-19T01:24:51;1134.22;;;323.92;;
5774;SDS011;2913;51.120;6.772;2023-06-19T01:27:17;1164.32;;;332.27;;
5774;SDS011;2913;51.120;6.772;2023-06-19T01:29:45;1208.40;;;344.77;;
5774;SDS011;2913;51.120;6.772;2023-06-19T01:32:13;1143.65;;;327.60;;
5774;SDS011;2913;51.120;6.772;2023-06-19T01:34:44;1184.10;;;338.45;;
5774;SDS011;2913;51.120;6.772;2023-06-19T01:37:11;1117.40;;;321.25;;
5774;SDS011;2913;51.120;6.772;2023-06-19T01:39:37;1131.70;;;326.30;;
5774;SDS011;2913;51.120;6.772;2023-06-19T01:42:04;1197.82;;;342.35;;
5774;SDS011;2913;51.120;6.772;2023-06-19T01:44:31;1153.30;;;330.73;;
5774;SDS011;2913;51.120;6.772;2023-06-19T01:46:58;1187.72;;;338.77;;
5774;SDS011;2913;51.120;6.772;2023-06-19T01:49:26;1122.22;;;326.23;;
5774;SDS011;2913;51.120;6.772;2023-06-19T01:51:52;1167.65;;;335.55;;
5774;SDS011;2913;51.120;6.772;2023-06-19T01:54:21;1069.22;;;309.75;;
5774;SDS011;2913;51.120;6.772;2023-06-19T01:56:46;996.88;;;290.70;;
5774;SDS011;2913;51.120;6.772;2023-06-19T01:59:12;1014.88;;;295.23;;
5774;SDS011;2913;51.120;6.772;2023-06-19T02:01:37;968.47;;;282.38;;
5774;SDS011;2913;51.120;6.772;2023-06-19T02:04:03;1036.35;;;301.45;;
5774;SDS011;2913;51.120;6.772;2023-06-19T02:06:29;1072.55;;;310.70;;
5774;SDS011;2913;51.120;6.772;2023-06-19T02:08:58;1157.18;;;332.92;;
5774;SDS011;2913;51.120;6.772;2023-06-19T02:11:23;1212.53;;;345.13;;
5774;SDS011;2913;51.120;6.772;2023-06-19T02:13:49;1224.22;;;348.42;;
5774;SDS011;2913;51.120;6.772;2023-06-19T02:16:19;1222.75;;;346.20;;
5774;SDS011;2913;51.120;6.772;2023-06-19T02:18:45;1239.68;;;347.40;;
5774;SDS011;2913;51.120;6.772;2023-06-19T02:21:12;1223.50;;;344.90;;
5774;SDS011;2913;51.120;6.772;2023-06-19T02:23:38;1244.45;;;351.25;;
5774;SDS011;2913;51.120;6.772;2023-06-19T02:26:04;1911.15;;;539.25;;
5774;SDS011;2913;51.120;6.772;2023-06-19T02:28:29;1394.90;;;391.88;;
5774;SDS011;2913;51.120;6.772;2023-06-19T02:30:57;1893.13;;;556.50;;
5774;SDS011;2913;51.120;6.772;2023-06-19T02:33:23;1175.18;;;330.48;;
5774;SDS011;2913;51.120;6.772;2023-06-19T02:35:48;1336.68;;;386.15;;
5774;SDS011;2913;51.120;6.772;2023-06-19T02:38:16;1718.45;;;527.47;;
5774;SDS011;2913;51.120;6.772;2023-06-19T02:40:48;1012.03;;;292.52;;
5774;SDS011;2913;51.120;6.772;2023-06-19T02:43:13;1004.63;;;291.10;;
5774;SDS011;2913;51.120;6.772;2023-06-19T02:45:43;953.45;;;277.17;;
5774;SDS011;2913;51.120;6.772;2023-06-19T02:48:09;943.92;;;274.70;;
5774;SDS011;2913;51.120;6.772;2023-06-19T02:50:35;924.45;;;269.63;;
5774;SDS011;2913;51.120;6.772;2023-06-19T02:53:00;866.47;;;254.85;;
5774;SDS011;2913;51.120;6.772;2023-06-19T02:55:26;845.45;;;248.60;;
5774;SDS011;2913;51.120;6.772;2023-06-19T02:57:51;851.95;;;251.10;;
5774;SDS011;2913;51.120;6.772;2023-06-19T03:00:17;767.88;;;228.57;;
5774;SDS011;2913;51.120;6.772;2023-06-19T03:02:43;793.33;;;235.52;;
5774;SDS011;2913;51.120;6.772;2023-06-19T03:05:09;832.53;;;242.43;;
5774;SDS011;2913;51.120;6.772;2023-06-19T03:07:37;934.45;;;265.40;;
5774;SDS011;2913;51.120;6.772;2023-06-19T03:10:03;14.20;;;7.32;;
5774;SDS011;2913;51.120;6.772;2023-06-19T03:12:29;719.40;;;212.02;;
5774;SDS011;2913;51.120;6.772;2023-06-19T03:14:57;749.80;;;218.07;;
5774;SDS011;2913;51.120;6.772;2023-06-19T03:17:23;747.08;;;217.52;;
5774;SDS011;2913;51.120;6.772;2023-06-19T03:19:51;696.50;;;204.02;;
5774;SDS011;2913;51.120;6.772;2023-06-19T03:22:17;640.65;;;189.70;;
5774;SDS011;2913;51.120;6.772;2023-06-19T03:24:44;657.40;;;194.10;;
5774;SDS011;2913;51.120;6.772;2023-06-19T03:27:10;685.65;;;201.65;;
5774;SDS011;2913;51.120;6.772;2023-06-19T03:29:35;756.92;;;218.75;;
5774;SDS011;2913;51.120;6.772;2023-06-19T03:32:01;660.80;;;193.55;;
5774;SDS011;2913;51.120;6.772;2023-06-19T03:34:26;650.75;;;191.32;;
5774;SDS011;2913;51.120;6.772;2023-06-19T03:36:52;607.88;;;180.80;;
5774;SDS011;2913;51.120;6.772;2023-06-19T03:39:20;588.67;;;174.52;;
5774;SDS011;2913;51.120;6.772;2023-06-19T03:41:45;538.20;;;161.25;;
5774;SDS011;2913;51.120;6.772;2023-06-19T03:44:11;509.27;;;153.25;;
5774;SDS011;2913;51.120;6.772;2023-06-19T03:46:39;476.70;;;145.05;;
5774;SDS011;2913;51.120;6.772;2023-06-19T03:49:07;497.77;;;149.23;;
5774;SDS011;2913;51.120;6.772;2023-06-19T03:51:34;505.67;;;152.00;;
5774;SDS011;2913;51.120;6.772;2023-06-19T03:54:00;452.42;;;138.43;;
5774;SDS011;2913;51.120;6.772;2023-06-19T03:56:25;328.55;;;117.55;;
5774;SDS011;2913;51.120;6.772;2023-06-19T03:58:53;320.83;;;115.88;;
5774;SDS011;2913;51.120;6.772;2023-06-19T04:01:19;299.65;;;111.65;;
5774;SDS011;2913;51.120;6.772;2023-06-19T04:03:45;290.35;;;109.07;;
5774;SDS011;2913;51.120;6.772;2023-06-19T04:06:12;270.23;;;105.65;;
5774;SDS011;2913;51.120;6.772;2023-06-19T04:08:38;285.45;;;108.97;;
5774;SDS011;2913;51.120;6.772;2023-06-19T04:11:04;232.15;;;98.20;;
5774;SDS011;2913;51.120;6.772;2023-06-19T04:13:29;193.10;;;87.85;;
5774;SDS011;2913;51.120;6.772;2023-06-19T04:15:57;150.13;;;77.30;;
5774;SDS011;2913;51.120;6.772;2023-06-19T04:18:23;144.52;;;76.53;;
5774;SDS011;2913;51.120;6.772;2023-06-19T04:20:48;171.85;;;83.50;;
5774;SDS011;2913;51.120;6.772;2023-06-19T04:23:16;100.40;;;56.78;;
5774;SDS011;2913;51.120;6.772;2023-06-19T04:25:42;57.97;;;40.22;;
5774;SDS011;2913;51.120;6.772;2023-06-19T04:28:08;67.88;;;44.97;;
5774;SDS011;2913;51.120;6.772;2023-06-19T04:30:33;58.97;;;41.30;;
5774;SDS011;2913;51.120;6.772;2023-06-19T04:32:59;144.55;;;74.80;;
5774;SDS011;2913;51.120;6.772;2023-06-19T04:35:25;167.27;;;81.72;;
5774;SDS011;2913;51.120;6.772;2023-06-19T04:37:51;104.20;;;60.38;;
5774;SDS011;2913;51.120;6.772;2023-06-19T04:40:17;124.70;;;64.97;;
5774;SDS011;2913;51.120;6.772;2023-06-19T04:42:42;94.43;;;57.78;;
5774;SDS011;2913;51.120;6.772;2023-06-19T04:45:11;73.40;;;45.38;;
5774;SDS011;2913;51.120;6.772;2023-06-19T04:47:36;28.95;;;14.55;;
5774;SDS011;2913;51.120;6.772;2023-06-19T04:50:05;23.73;;;8.48;;
5774;SDS011;2913;51.120;6.772;2023-06-19T04:52:32;137.13;;;71.22;;
5774;SDS011;2913;51.120;6.772;2023-06-19T04:54:58;97.60;;;57.28;;
5774;SDS011;2913;51.120;6.772;2023-06-19T04:57:26;59.38;;;39.72;;
5774;SDS011;2913;51.120;6.772;2023-06-19T04:59:53;33.25;;;13.10;;
5774;SDS011;2913;51.120;6.772;2023-06-19T05:02:19;19.05;;;8.07;;
5774;SDS011;2913;51.120;6.772;2023-06-19T05:04:44;19.83;;;7.00;;
5774;SDS011;2913;51.120;6.772;2023-06-19T05:07:10;22.23;;;7.50;;
5774;SDS011;2913;51.120;6.772;2023-06-19T05:09:37;28.35;;;10.10;;
5774;SDS011;2913;51.120;6.772;2023-06-19T05:12:03;23.77;;;8.52;;
5774;SDS011;2913;51.120;6.772;2023-06-19T05:14:31;49.15;;;29.33;;
5774;SDS011;2913;51.120;6.772;2023-06-19T05:16:57;29.10;;;10.70;;
5774;SDS011;2913;51.120;6.772;2023-06-19T05:19:25;35.03;;;13.27;;
5774;SDS011;2913;51.120;6.772;2023-06-19T05:21:51;22.20;;;6.75;;
5774;SDS011;2913;51.120;6.772;2023-06-19T05:24:18;18.27;;;7.50;;
5774;SDS011;2913;51.120;6.772;2023-06-19T05:26:44;18.35;;;5.75;;
5774;SDS011;2913;51.120;6.772;2023-06-19T05:29:09;14.95;;;4.00;;
5774;SDS011;2913;51.120;6.772;2023-06-19T05:31:36;5.05;;;2.92;;
5774;SDS011;2913;51.120;6.772;2023-06-19T05:34:01;8.23;;;2.97;;
5774;SDS011;2913;51.120;6.772;2023-06-19T05:36:31;8.63;;;2.50;;
5774;SDS011;2913;51.120;6.772;2023-06-19T05:38:57;10.05;;;3.10;;
5774;SDS011;2913;51.120;6.772;2023-06-19T05:41:22;9.77;;;3.30;;
5774;SDS011;2913;51.120;6.772;2023-06-19T05:43:48;11.55;;;3.45;;
5774;SDS011;2913;51.120;6.772;2023-06-19T05:46:16;11.02;;;3.55;;
5774;SDS011;2913;51.120;6.772;2023-06-19T05:48:41;7.28;;;3.45;;
5774;SDS011;2913;51.120;6.772;2023-06-19T05:51:07;8.45;;;2.55;;
5774;SDS011;2913;51.120;6.772;2023-06-19T05:53:33;6.05;;;2.38;;
5774;SDS011;2913;51.120;6.772;2023-06-19T05:55:58;6.30;;;2.17;;
5774;SDS011;2913;51.120;6.772;2023-06-19T05:58:24;2.85;;;1.80;;
5774;SDS011;2913;51.120;6.772;2023-06-19T06:00:50;3.35;;;1.52;;
5774;SDS011;2913;51.120;6.772;2023-06-19T06:03:22;5.93;;;2.20;;
5774;SDS011;2913;51.120;6.772;2023-06-19T06:05:49;4.40;;;1.80;;
5774;SDS011;2913;51.120;6.772;2023-06-19T06:08:17;5.47;;;1.77;;
5774;SDS011;2913;51.120;6.772;2023-06-19T06:10:42;4.45;;;1.60;;
5774;SDS011;2913;51.120;6.772;2023-06-19T06:13:08;3.80;;;1.98;;
5774;SDS011;2913;51.120;6.772;2023-06-19T06:15:34;3.70;;;1.70;;
5774;SDS011;2913;51.120;6.772;2023-06-19T06:17:59;8.73;;;2.20;;
5774;SDS011;2913;51.120;6.772;2023-06-19T06:20:25;4.22;;;1.58;;
5774;SDS011;2913;51.120;6.772;2023-06-19T06:22:53;7.20;;;1.90;;
5774;SDS011;2913;51.120;6.772;2023-06-19T06:25:19;3.83;;;1.70;;
5774;SDS011;2913;51.120;6.772;2023-06-19T06:27:48;5.28;;;1.60;;
5774;SDS011;2913;51.120;6.772;2023-06-19T06:30:16;5.40;;;2.00;;
5774;SDS011;2913;51.120;6.772;2023-06-19T06:32:42;5.93;;;1.73;;
5774;SDS011;2913;51.120;6.772;2023-06-19T06:35:12;5.40;;;1.67;;
5774;SDS011;2913;51.120;6.772;2023-06-19T06:37:38;4.55;;;1.60;;
5774;SDS011;2913;51.120;6.772;2023-06-19T06:40:06;4.82;;;1.50;;
5774;SDS011;2913;51.120;6.772;2023-06-19T06:42:36;2.58;;;1.52;;
5774;SDS011;2913;51.120;6.772;2023-06-19T06:45:05;4.65;;;1.80;;
5774;SDS011;2913;51.120;6.772;2023-06-19T06:47:31;7.40;;;1.60;;
5774;SDS011;2913;51.120;6.772;2023-06-19T06:49:57;7.00;;;1.77;;
5774;SDS011;2913;51.120;6.772;2023-06-19T06:52:23;3.53;;;1.45;;
5774;SDS011;2913;51.120;6.772;2023-06-19T06:54:50;4.45;;;1.73;;
5774;SDS011;2913;51.120;6.772;2023-06-19T06:57:16;5.57;;;1.60;;
5774;SDS011;2913;51.120;6.772;2023-06-19T06:59:44;8.70;;;1.75;;
5774;SDS011;2913;51.120;6.772;2023-06-19T07:02:12;3.55;;;1.77;;
5774;SDS011;2913;51.120;6.772;2023-06-19T07:04:40;7.32;;;1.83;;
5774;SDS011;2913;51.120;6.772;2023-06-19T07:07:08;7.55;;;2.03;;
5774;SDS011;2913;51.120;6.772;2023-06-19T07:09:33;7.97;;;3.22;;
5774;SDS011;2913;51.120;6.772;2023-06-19T07:11:59;8.65;;;2.15;;
5774;SDS011;2913;51.120;6.772;2023-06-19T07:14:26;9.77;;;2.25;;
5774;SDS011;2913;51.120;6.772;2023-06-19T07:16:55;6.18;;;1.95;;
5774;SDS011;2913;51.120;6.772;2023-06-19T07:19:25;14.18;;;2.45;;
5774;SDS011;2913;51.120;6.772;2023-06-19T07:21:53;9.60;;;1.90;;
5774;SDS011;2913;51.120;6.772;2023-06-19T07:24:20;5.30;;;1.80;;
5774;SDS011;2913;51.120;6.772;2023-06-19T07:26:46;4.40;;;1.48;;
5774;SDS011;2913;51.120;6.772;2023-06-19T07:29:12;7.50;;;1.50;;
5774;SDS011;2913;51.120;6.772;2023-06-19T07:31:37;10.30;;;1.73;;
5774;SDS011;2913;51.120;6.772;2023-06-19T07:34:03;5.32;;;1.83;;
5774;SDS011;2913;51.120;6.772;2023-06-19T07:36:31;3.80;;;2.00;;
5774;SDS011;2913;51.120;6.772;2023-06-19T07:38:57;9.35;;;2.38;;
5774;SDS011;2913;51.120;6.772;2023-06-19T07:41:23;5.15;;;1.73;;
5774;SDS011;2913;51.120;6.772;2023-06-19T07:43:53;5.70;;;1.63;;
5774;SDS011;2913;51.120;6.772;2023-06-19T07:46:18;7.78;;;1.73;;
5774;SDS011;2913;51.120;6.772;2023-06-19T07:48:46;3.55;;;1.65;;
5774;SDS011;2913;51.120;6.772;2023-06-19T07:51:16;8.02;;;1.83;;
5774;SDS011;2913;51.120;6.772;2023-06-19T07:53:42;6.82;;;1.85;;
5774;SDS011;2913;51.120;6.772;2023-06-19T07:56:08;7.13;;;2.00;;
5774;SDS011;2913;51.120;6.772;2023-06-19T07:58:34;4.72;;;2.00;;
5774;SDS011;2913;51.120;6.772;2023-06-19T08:01:02;9.63;;;2.00;;
5774;SDS011;2913;51.120;6.772;2023-06-19T08:03:28;6.43;;;2.30;;
5774;SDS011;2913;51.120;6.772;2023-06-19T08:05:56;4.53;;;1.70;;
5774;SDS011;2913;51.120;6.772;2023-06-19T08:08:24;3.75;;;1.80;;
5774;SDS011;2913;51.120;6.772;2023-06-19T08:10:50;5.25;;;2.17;;
5774;SDS011;2913;51.120;6.772;2023-06-19T08:13:15;3.95;;;1.90;;
5774;SDS011;2913;51.120;6.772;2023-06-19T08:15:41;3.00;;;2.10;;
5774;SDS011;2913;51.120;6.772;2023-06-19T08:18:08;6.85;;;2.25;;
5774;SDS011;2913;51.120;6.772;2023-06-19T08:20:33;2.90;;;1.77;;
5774;SDS011;2913;51.120;6.772;2023-06-19T08:22:59;2.83;;;1.95;;
5774;SDS011;2913;51.120;6.772;2023-06-19T08:25:25;6.15;;;2.20;;
5774;SDS011;2913;51.120;6.772;2023-06-19T08:27:50;14.30;;;4.35;;
5774;SDS011;2913;51.120;6.772;2023-06-19T08:30:16;7.18;;;2.20;;
5774;SDS011;2913;51.120;6.772;2023-06-19T08:32:43;7.28;;;2.38;;
5774;SDS011;2913;51.120;6.772;2023-06-19T08:35:14;4.65;;;2.20;;
5774;SDS011;2913;51.120;6.772;2023-06-19T08:37:42;4.32;;;2.40;;
5774;SDS011;2913;51.120;6.772;2023-06-19T08:40:09;6.15;;;2.28;;
5774;SDS011;2913;51.120;6.772;2023-06-19T08:42:35;5.93;;;2.10;;
5774;SDS011;2913;51.120;6.772;2023-06-19T08:45:02;3.65;;;2.30;;
5774;SDS011;2913;51.120;6.772;2023-06-19T08:47:33;5.70;;;2.30;;
5774;SDS011;2913;51.120;6.772;2023-06-19T08:49:59;5.15;;;2.08;;
5774;SDS011;2913;51.120;6.772;2023-06-19T08:52:28;5.90;;;2.53;;
5774;SDS011;2913;51.120;6.772;2023-06-19T08:54:53;6.28;;;2.25;;
5774;SDS011;2913;51.120;6.772;2023-06-19T08:57:19;7.10;;;2.22;;
5774;SDS011;2913;51.120;6.772;2023-06-19T08:59:57;3.63;;;2.15;;
5774;SDS011;2913;51.120;6.772;2023-06-19T09:02:22;7.32;;;3.00;;
5774;SDS011;2913;51.120;6.772;2023-06-19T09:04:48;6.32;;;2.33;;
5774;SDS011;2913;51.120;6.772;2023-06-19T09:07:16;7.38;;;2.63;;
5774;SDS011;2913;51.120;6.772;2023-06-19T09:09:45;7.18;;;2.30;;
5774;SDS011;2913;51.120;6.772;2023-06-19T09:12:13;5.93;;;2.00;;
5774;SDS011;2913;51.120;6.772;2023-06-19T09:14:43;7.18;;;2.72;;
5774;SDS011;2913;51.120;6.772;2023-06-19T09:17:17;6.57;;;2.65;;
5774;SDS011;2913;51.120;6.772;2023-06-19T09:19:51;8.05;;;2.47;;
5774;SDS011;2913;51.120;6.772;2023-06-19T09:22:18;7.07;;;2.13;;
5774;SDS011;2913;51.120;6.772;2023-06-19T09:24:48;6.55;;;2.40;;
5774;SDS011;2913;51.120;6.772;2023-06-19T09:27:18;4.15;;;2.10;;
5774;SDS011;2913;51.120;6.772;2023-06-19T09:29:45;6.13;;;2.75;;
5774;SDS011;2913;51.120;6.772;2023-06-19T09:32:21;5.07;;;2.75;;
5774;SDS011;2913;51.120;6.772;2023-06-19T09:34:50;7.47;;;2.60;;
5774;SDS011;2913;51.120;6.772;2023-06-19T09:37:26;4.95;;;2.70;;
5774;SDS011;2913;51.120;6.772;2023-06-19T09:39:57;5.13;;;2.55;;
5774;SDS011;2913;51.120;6.772;2023-06-19T09:42:35;9.25;;;2.63;;
5774;SDS011;2913;51.120;6.772;2023-06-19T09:45:02;6.15;;;2.72;;
5774;SDS011;2913;51.120;6.772;2023-06-19T09:47:33;6.25;;;3.42;;
5774;SDS011;2913;51.120;6.772;2023-06-19T09:52:31;4.75;;;2.58;;
5774;SDS011;2913;51.120;6.772;2023-06-19T09:54:57;3.30;;;2.20;;
5774;SDS011;2913;51.120;6.772;2023-06-19T09:57:23;10.35;;;2.97;;
5774;SDS011;2913;51.120;6.772;2023-06-19T09:59:53;8.38;;;2.63;;
5774;SDS011;2913;51.120;6.772;2023-06-19T10:02:24;7.78;;;2.80;;
5774;SDS011;2913;51.120;6.772;2023-06-19T10:04:55;5.93;;;3.10;;
5774;SDS011;2913;51.120;6.772;2023-06-19T10:07:24;8.20;;;3.03;;
5774;SDS011;2913;51.120;6.772;2023-06-19T10:12:34;7.13;;;2.95;;
5774;SDS011;2913;51.120;6.772;2023-06-19T10:17:42;12.50;;;3.00;;
5774;SDS011;2913;51.120;6.772;2023-06-19T10:20:37;6.30;;;2.72;;
5774;SDS011;2913;51.120;6.772;2023-06-19T10:23:06;7.53;;;2.95;;
5774;SDS011;2913;51.120;6.772;2023-06-19T10:25:43;12.32;;;4.28;;
5774;SDS011;2913;51.120;6.772;2023-06-19T10:28:30;9.70;;;2.92;;
5774;SDS011;2913;51.120;6.772;2023-06-19T10:31:04;6.45;;;2.85;;
5774;SDS011;2913;51.120;6.772;2023-06-19T10:33:37;6.13;;;2.90;;
5774;SDS011;2913;51.120;6.772;2023-06-19T10:36:18;8.23;;;3.20;;
5774;SDS011;2913;51.120;6.772;2023-06-19T10:38:50;7.22;;;2.92;;
5774;SDS011;2913;51.120;6.772;2023-06-19T10:41:17;7.75;;;3.03;;
5774;SDS011;2913;51.120;6.772;2023-06-19T10:43:55;7.78;;;3.50;;
5774;SDS011;2913;51.120;6.772;2023-06-19T10:46:29;6.43;;;2.90;;
5774;SDS011;2913;51.120;6.772;2023-06-19T10:48:56;9.82;;;3.10;;
5774;SDS011;2913;51.120;6.772;2023-06-19T10:51:28;13.85;;;3.25;;
5774;SDS011;2913;51.120;6.772;2023-06-19T10:53:57;7.63;;;3.28;;
5774;SDS011;2913;51.120;6.772;2023-06-19T10:56:25;12.95;;;3.00;;
5774;SDS011;2913;51.120;6.772;2023-06-19T11:01:40;10.65;;;3.53;;
5774;SDS011;2913;51.120;6.772;2023-06-19T11:04:09;10.75;;;3.65;;
5774;SDS011;2913;51.120;6.772;2023-06-19T11:06:37;13.68;;;3.00;;
5774;SDS011;2913;51.120;6.772;2023-06-19T11:09:08;12.32;;;3.45;;
5774;SDS011;2913;51.120;6.772;2023-06-19T11:11:36;9.85;;;3.15;;
5774;SDS011;2913;51.120;6.772;2023-06-19T11:14:05;5.50;;;3.03;;
5774;SDS011;2913;51.120;6.772;2023-06-19T11:16:32;5.63;;;3.10;;
5774;SDS011;2913;51.120;6.772;2023-06-19T11:18:58;7.85;;;3.38;;
5774;SDS011;2913;51.120;6.772;2023-06-19T11:21:33;7.57;;;3.80;;
5774;SDS011;2913;51.120;6.772;2023-06-19T11:24:10;7.55;;;3.60;;
5774;SDS011;2913;51.120;6.772;2023-06-19T11:26:42;7.22;;;3.38;;
5774;SDS011;2913;51.120;6.772;2023-06-19T11:29:14;13.15;;;3.72;;
5774;SDS011;2913;51.120;6.772;2023-06-19T11:31:43;9.98;;;3.40;;
5774;SDS011;2913;51.120;6.772;2023-06-19T11:34:09;7.28;;;3.25;;
5774;SDS011;2913;51.120;6.772;2023-06-19T11:36:37;10.10;;;3.42;;
5774;SDS011;2913;51.120;6.772;2023-06-19T11:39:12;7.80;;;3.40;;
5774;SDS011;2913;51.120;6.772;2023-06-19T11:41:40;8.63;;;3.30;;
5774;SDS011;2913;51.120;6.772;2023-06-19T11:44:10;6.57;;;3.67;;
5774;SDS011;2913;51.120;6.772;2023-06-19T11:46:38;10.20;;;3.50;;
5774;SDS011;2913;51.120;6.772;2023-06-19T11:49:15;8.23;;;3.70;;
5774;SDS011;2913;51.120;6.772;2023-06-19T11:51:43;14.13;;;3.88;;
5774;SDS011;2913;51.120;6.772;2023-06-19T11:54:12;9.27;;;3.58;;
5774;SDS011;2913;51.120;6.772;2023-06-19T11:56:43;5.60;;;3.03;;
5774;SDS011;2913;51.120;6.772;2023-06-19T11:59:14;22.48;;;4.95;;
5774;SDS011;2913;51.120;6.772;2023-06-19T12:01:42;18.48;;;3.40;;
5774;SDS011;2913;51.120;6.772;2023-06-19T12:04:10;6.75;;;3.20;;
5774;SDS011;2913;51.120;6.772;2023-06-19T12:06:36;7.55;;;3.30;;
5774;SDS011;2913;51.120;6.772;2023-06-19T12:09:06;8.85;;;3.60;;
5774;SDS011;2913;51.120;6.772;2023-06-19T12:11:34;9.30;;;3.15;;
5774;SDS011;2913;51.120;6.772;2023-06-19T12:14:00;9.43;;;3.20;;
5774;SDS011;2913;51.120;6.772;2023-06-19T12:16:28;11.30;;;3.40;;
5774;SDS011;2913;51.120;6.772;2023-06-19T12:18:56;10.05;;;3.33;;
5774;SDS011;2913;51.120;6.772;2023-06-19T12:21:24;5.55;;;3.53;;
5774;SDS011;2913;51.120;6.772;2023-06-19T12:23:50;11.98;;;3.83;;
5774;SDS011;2913;51.120;6.772;2023-06-19T12:26:18;9.90;;;3.60;;
5774;SDS011;2913;51.120;6.772;2023-06-19T12:28:44;8.27;;;3.40;;
5774;SDS011;2913;51.120;6.772;2023-06-19T12:31:10;12.63;;;5.03;;
5774;SDS011;2913;51.120;6.772;2023-06-19T12:33:35;13.75;;;3.33;;
5774;SDS011;2913;51.120;6.772;2023-06-19T12:36:04;12.13;;;3.10;;
5774;SDS011;2913;51.120;6.772;2023-06-19T12:38:31;6.28;;;3.00;;
5774;SDS011;2913;51.120;6.772;2023-06-19T12:40:56;5.78;;;3.20;;
5774;SDS011;2913;51.120;6.772;2023-06-19T12:43:22;8.05;;;3.50;;
5774;SDS011;2913;51.120;6.772;2023-06-19T12:45:47;10.35;;;3.47;;
5774;SDS011;2913;51.120;6.772;2023-06-19T12:48:13;9.27;;;3.25;;
5774;SDS011;2913;51.120;6.772;2023-06-19T12:50:42;6.43;;;3.28;;
5774;SDS011;2913;51.120;6.772;2023-06-19T12:53:07;10.00;;;3.35;;
5774;SDS011;2913;51.120;6.772;2023-06-19T12:55:33;6.93;;;3.22;;
5774;SDS011;2913;51.120;6.772;2023-06-19T12:57:59;12.70;;;3.60;;
5774;SDS011;2913;51.120;6.772;2023-06-19T13:00:26;7.20;;;3.35;;
5774;SDS011;2913;51.120;6.772;2023-06-19T13:02:54;6.30;;;3.63;;
5774;SDS011;2913;51.120;6.772;2023-06-19T13:05:20;14.30;;;3.60;;
5774;SDS011;2913;51.120;6.772;2023-06-19T13:07:46;9.27;;;3.45;;
5774;SDS011;2913;51.120;6.772;2023-06-19T13:10:11;9.13;;;3.40;;
5774;SDS011;2913;51.120;6.772;2023-06-19T13:12:39;7.82;;;3.30;;
5774;SDS011;2913;51.120;6.772;2023-06-19T13:15:05;6.28;;;3.42;;
5774;SDS011;2913;51.120;6.772;2023-06-19T13:17:31;8.50;;;3.28;;
5774;SDS011;2913;51.120;6.772;2023-06-19T13:19:59;7.25;;;3.33;;
5774;SDS011;2913;51.120;6.772;2023-06-19T13:22:25;5.85;;;3.20;;
5774;SDS011;2913;51.120;6.772;2023-06-19T13:24:56;19.02;;;3.90;;
5774;SDS011;2913;51.120;6.772;2023-06-19T13:27:27;10.93;;;3.15;;
5774;SDS011;2913;51.120;6.772;2023-06-19T13:29:53;6.40;;;3.63;;
5774;SDS011;2913;51.120;6.772;2023-06-19T13:32:21;17.40;;;3.55;;
5774;SDS011;2913;51.120;6.772;2023-06-19T13:34:49;10.93;;;3.45;;
5774;SDS011;2913;51.120;6.772;2023-06-19T13:37:15;9.02;;;3.20;;
5774;SDS011;2913;51.120;6.772;2023-06-19T13:39:43;7.15;;;3.40;;
5774;SDS011;2913;51.120;6.772;2023-06-19T13:42:11;11.43;;;3.67;;
5774;SDS011;2913;51.120;6.772;2023-06-19T13:44:37;7.32;;;3.05;;
5774;SDS011;2913;51.120;6.772;2023-06-19T13:47:03;6.57;;;3.40;;
5774;SDS011;2913;51.120;6.772;2023-06-19T13:49:32;10.63;;;3.13;;
5774;SDS011;2913;51.120;6.772;2023-06-19T13:52:00;7.43;;;3.25;;
5774;SDS011;2913;51.120;6.772;2023-06-19T13:54:26;8.85;;;3.63;;
5774;SDS011;2913;51.120;6.772;2023-06-19T13:56:51;10.30;;;3.15;;
5774;SDS011;2913;51.120;6.772;2023-06-19T13:59:17;6.32;;;3.30;;
5774;SDS011;2913;51.120;6.772;2023-06-19T14:01:45;8.40;;;3.13;;
5774;SDS011;2913;51.120;6.772;2023-06-19T14:04:13;10.23;;;3.05;;
5774;SDS011;2913;51.120;6.772;2023-06-19T14:06:38;9.85;;;3.80;;
5774;SDS011;2913;51.120;6.772;2023-06-19T14:09:07;8.07;;;2.95;;
5774;SDS011;2913;51.120;6.772;2023-06-19T14:11:32;6.07;;;3.38;;
5774;SDS011;2913;51.120;6.772;2023-06-19T14:13:58;3.97;;;2.55;;
5774;SDS011;2913;51.120;6.772;2023-06-19T14:16:26;7.80;;;3.47;;
5774;SDS011;2913;51.120;6.772;2023-06-19T14:18:54;6.75;;;3.17;;
5774;SDS011;2913;51.120;6.772;2023-06-19T14:21:22;7.40;;;3.30;;
5774;SDS011;2913;51.120;6.772;2023-06-19T14:23:48;8.38;;;3.08;;
5774;SDS011;2913;51.120;6.772;2023-06-19T14:26:18;13.57;;;3.20;;
5774;SDS011;2913;51.120;6.772;2023-06-19T14:28:44;9.27;;;3.35;;
5774;SDS011;2913;51.120;6.772;2023-06-19T14:31:12;5.38;;;2.70;;
5774;SDS011;2913;51.120;6.772;2023-06-19T14:33:37;7.15;;;3.08;;
5774;SDS011;2913;51.120;6.772;2023-06-19T14:36:05;136.32;;;7.20;;
5774;SDS011;2913;51.120;6.772;2023-06-19T14:38:31;9.60;;;3.47;;
5774;SDS011;2913;51.120;6.772;2023-06-19T14:41:01;7.25;;;3.10;;
5774;SDS011;2913;51.120;6.772;2023-06-19T14:43:27;9.35;;;2.88;;
5774;SDS011;2913;51.120;6.772;2023-06-19T14:45:56;6.28;;;3.10;;
5774;SDS011;2913;51.120;6.772;2023-06-19T14:48:22;7.70;;;3.20;;
5774;SDS011;2913;51.120;6.772;2023-06-19T14:50:50;9.43;;;3.13;;
5774;SDS011;2913;51.120;6.772;2023-06-19T14:53:15;7.93;;;3.08;;
5774;SDS011;2913;51.120;6.772;2023-06-19T14:55:43;8.48;;;2.85;;
5774;SDS011;2913;51.120;6.772;2023-06-19T14:58:11;12.00;;;3.58;;
5774;SDS011;2913;51.120;6.772;2023-06-19T15:00:43;7.35;;;2.67;;
5774;SDS011;2913;51.120;6.772;2023-06-19T15:03:11;8.38;;;3.15;;
5774;SDS011;2913;51.120;6.772;2023-06-19T15:05:36;6.28;;;3.13;;
5774;SDS011;2913;51.120;6.772;2023-06-19T15:08:04;7.75;;;2.97;;